This is the latest recevied weather packets stored in our database for station/object W1GK. If no packets are shown the sender has not sent any weather packets the latest 10 day(s).
| Time | Temp. | Humidity | Pressure | Rain* | Wind** | Luminosity | Snow |
|---|---|---|---|---|---|---|---|
| 1787515200 | 43.33° C | 11% | 1014.7 hPa | 0 mm | - | 868 W/m² | - |
| 1787514597 | 42.78° C | 11% | 1014.9 hPa | 0 mm | - | 868 W/m² | - |
| 1787513999 | 43.33° C | 11% | 1015 hPa | 0 mm | - | 867 W/m² | - |
| 1787513398 | 42.78° C | 12% | 1015.2 hPa | 0 mm | - | 838 W/m² | - |
| 1787512799 | 42.22° C | 12% | 1015.3 hPa | 0 mm | - | 840 W/m² | - |
| 1787512199 | 42.22° C | 13% | 1015.5 hPa | 0 mm | - | 837 W/m² | - |
| 1787511597 | 41.67° C | 13% | 1015.5 hPa | 0 mm | - | 831 W/m² | - |
| 1787510999 | 41.67° C | 13% | 1015.8 hPa | 0 mm | - | 823 W/m² | - |
| 1787510398 | 41.67° C | 13% | 1015.9 hPa | 0 mm | - | 816 W/m² | - |
| 1787509799 | 41.11° C | 14% | 1016 hPa | 0 mm | - | 805 W/m² | - |
| 1787509199 | 40.56° C | 14% | 1016 hPa | 0 mm | - | 791 W/m² | - |
| 1787508597 | 39.44° C | 15% | 1016.1 hPa | 0 mm | - | 779 W/m² | - |
| 1787507998 | 39.44° C | 15% | 1016.2 hPa | 0 mm | - | 766 W/m² | - |
| 1787507397 | 39.44° C | 15% | 1016.3 hPa | 0 mm | - | 751 W/m² | - |
| 1787506798 | 39.44° C | 15% | 1016.3 hPa | 0 mm | - | 731 W/m² | - |
| 1787506197 | 39.44° C | 15% | 1016.4 hPa | 0 mm | - | 717 W/m² | - |
| 1787505597 | 38.89° C | 15% | 1016.4 hPa | 0 mm | - | 689 W/m² | - |
| 1787504998 | 38.89° C | 16% | 1016.4 hPa | 0 mm | - | 670 W/m² | - |
| 1787504401 | 38.33° C | 16% | 1016.3 hPa | 0 mm | - | 650 W/m² | - |
| 1787503798 | 37.78° C | 16% | 1016.3 hPa | 0 mm | - | 626 W/m² | - |
| 1787503198 | 37.22° C | 16% | 1016.3 hPa | 0 mm | - | 601 W/m² | - |
| 1787502599 | 37.22° C | 17% | 1016.3 hPa | 0 mm | - | 575 W/m² | - |
| 1787501998 | 36.67° C | 17% | 1016.2 hPa | 0 mm | - | 547 W/m² | - |
| 1787501398 | 36.11° C | 18% | 1016.3 hPa | 0 mm | - | 520 W/m² | - |
| 1787500800 | 35.56° C | 18% | 1016.2 hPa | 0 mm | - | 489 W/m² | - |
* Rain latest hour (hover to see other rain measurements)
** Current wind speed in m/s (hover to see current wind gust speed)